createdAt,value
2018-05-13T00:00:12.840Z,95.80
2018-05-13T00:00:45.393Z,95.90
2018-05-13T00:01:17.903Z,95.90
2018-05-13T00:01:50.699Z,95.90
2018-05-13T00:02:23.905Z,96.00
2018-05-13T00:02:56.494Z,96.00
2018-05-13T00:03:29.029Z,96.00
2018-05-13T00:04:01.556Z,96.00
2018-05-13T00:04:34.068Z,96.00
2018-05-13T00:05:07.367Z,96.30
2018-05-13T00:05:39.877Z,96.00
2018-05-13T00:06:12.404Z,96.00
2018-05-13T00:06:44.921Z,96.00
2018-05-13T00:07:17.436Z,96.00
2018-05-13T00:07:49.976Z,96.00
2018-05-13T00:08:23.071Z,96.00
2018-05-13T00:08:56.055Z,96.10
2018-05-13T00:09:28.610Z,96.00
2018-05-13T00:10:01.158Z,96.00
2018-05-13T00:10:33.697Z,96.00
2018-05-13T00:11:06.242Z,96.00
2018-05-13T00:11:38.771Z,95.90
2018-05-13T00:12:11.308Z,96.00
2018-05-13T00:12:43.841Z,96.00
2018-05-13T00:13:16.460Z,96.00
2018-05-13T00:13:49.032Z,96.10
2018-05-13T00:14:21.614Z,96.00
2018-05-13T00:14:54.139Z,96.10
2018-05-13T00:15:26.676Z,96.00
2018-05-13T00:15:59.192Z,96.10
2018-05-13T00:16:31.756Z,96.10
2018-05-13T00:17:04.304Z,96.10
2018-05-13T00:17:36.867Z,96.10
2018-05-13T00:18:09.441Z,96.20
2018-05-13T00:18:41.952Z,96.20
2018-05-13T00:19:14.518Z,96.20
2018-05-13T00:19:47.022Z,96.20
2018-05-13T00:20:19.586Z,96.20
2018-05-13T00:20:52.108Z,96.20
2018-05-13T00:21:24.624Z,96.20
2018-05-13T00:21:57.129Z,96.20
2018-05-13T00:22:29.640Z,96.20
2018-05-13T00:23:02.150Z,96.20
2018-05-13T00:23:34.671Z,96.20
2018-05-13T00:24:07.392Z,96.20
2018-05-13T00:24:39.905Z,96.20
2018-05-13T00:25:12.482Z,96.20
2018-05-13T00:25:45.023Z,96.20
2018-05-13T00:26:17.551Z,96.20
2018-05-13T00:26:50.838Z,96.30
2018-05-13T00:27:23.538Z,96.20
2018-05-13T00:27:56.262Z,96.30
2018-05-13T00:28:28.775Z,96.30
2018-05-13T00:29:01.328Z,96.20
2018-05-13T00:29:33.864Z,96.30
2018-05-13T00:30:07.151Z,96.30
2018-05-13T00:30:39.676Z,96.20
2018-05-13T00:31:12.194Z,96.30
2018-05-13T00:31:44.731Z,96.30
2018-05-13T00:32:18.040Z,96.40
2018-05-13T00:32:50.549Z,96.40
2018-05-13T00:33:23.803Z,96.40
2018-05-13T00:33:56.521Z,96.40
2018-05-13T00:34:29.806Z,96.40
2018-05-13T00:35:02.364Z,96.40
2018-05-13T00:35:34.907Z,96.40
2018-05-13T00:36:07.688Z,96.40
2018-05-13T00:36:40.230Z,96.40
2018-05-13T00:37:12.827Z,96.40
2018-05-13T00:37:46.369Z,96.70
2018-05-13T00:38:19.681Z,96.40
2018-05-13T00:38:52.295Z,96.40
2018-05-13T00:39:24.814Z,96.50
2018-05-13T00:39:57.612Z,96.50
2018-05-13T00:40:36.420Z,96.50
2018-05-13T00:41:08.969Z,96.40
2018-05-13T00:41:43.495Z,96.40
2018-05-13T00:42:19.539Z,96.50
2018-05-13T00:42:52.085Z,96.40
2018-05-13T00:43:28.386Z,96.50
2018-05-13T00:44:01.227Z,96.50
2018-05-13T00:44:34.642Z,96.60
2018-05-13T00:45:07.172Z,96.60
2018-05-13T00:45:39.731Z,96.60
2018-05-13T00:46:13.724Z,96.60
2018-05-13T00:46:46.276Z,96.60
2018-05-13T00:47:18.820Z,96.50
2018-05-13T00:47:51.354Z,96.50
2018-05-13T00:48:23.915Z,96.50
2018-05-13T00:48:56.428Z,96.40
2018-05-13T00:49:28.967Z,96.40
2018-05-13T00:50:01.508Z,96.50
2018-05-13T00:50:34.081Z,96.50
2018-05-13T00:51:06.685Z,96.50
2018-05-13T00:51:39.262Z,96.60
2018-05-13T00:52:11.859Z,96.60
2018-05-13T00:52:44.372Z,96.60
2018-05-13T00:53:17.087Z,96.60
2018-05-13T00:53:49.620Z,96.60
2018-05-13T00:54:45.498Z,96.60
2018-05-13T00:55:18.036Z,96.50
2018-05-13T00:55:50.557Z,96.60
2018-05-13T00:56:23.072Z,96.60
2018-05-13T00:56:55.617Z,96.60
2018-05-13T00:57:28.180Z,96.60
2018-05-13T00:58:00.760Z,96.60
2018-05-13T00:58:33.839Z,96.60
2018-05-13T00:59:06.356Z,96.60
2018-05-13T00:59:38.897Z,96.60
2018-05-13T01:00:11.422Z,96.60
2018-05-13T01:00:43.942Z,96.60
2018-05-13T01:01:16.488Z,96.60
2018-05-13T01:01:49.811Z,96.70
2018-05-13T01:02:22.332Z,96.60
2018-05-13T01:02:54.933Z,96.70
2018-05-13T01:03:27.566Z,96.70
2018-05-13T01:04:01.580Z,96.70
2018-05-13T01:04:34.162Z,96.70
2018-05-13T01:05:06.687Z,96.70
2018-05-13T01:05:39.337Z,96.70
2018-05-13T01:06:11.877Z,96.80
2018-05-13T01:06:45.297Z,96.70
2018-05-13T01:07:17.818Z,96.70
2018-05-13T01:07:50.344Z,96.80
2018-05-13T01:08:23.643Z,96.80
2018-05-13T01:08:56.171Z,96.80
2018-05-13T01:09:28.721Z,96.80
2018-05-13T01:10:01.235Z,96.80
2018-05-13T01:10:33.756Z,96.80
2018-05-13T01:11:06.311Z,96.80
2018-05-13T01:11:38.871Z,96.80
2018-05-13T01:12:11.417Z,96.80
2018-05-13T01:12:43.966Z,96.80
2018-05-13T01:13:16.516Z,96.80
2018-05-13T01:13:49.087Z,96.80
2018-05-13T01:14:21.660Z,96.80
2018-05-13T01:14:54.204Z,96.80
2018-05-13T01:15:27.327Z,96.80
2018-05-13T01:15:59.885Z,96.80
2018-05-13T01:16:32.424Z,96.80
2018-05-13T01:17:05.225Z,96.80
2018-05-13T01:17:37.753Z,96.80
2018-05-13T01:18:10.891Z,96.80
2018-05-13T01:18:43.413Z,96.80
2018-05-13T01:19:16.124Z,96.80
2018-05-13T01:19:48.669Z,96.90
2018-05-13T01:20:21.429Z,96.90
2018-05-13T01:20:53.960Z,97.00
2018-05-13T01:21:26.595Z,97.00
2018-05-13T01:21:59.138Z,97.10
2018-05-13T01:22:32.607Z,97.10
2018-05-13T01:23:05.138Z,97.10
2018-05-13T01:23:37.743Z,97.10
2018-05-13T01:24:10.318Z,97.10
2018-05-13T01:24:42.934Z,97.10
2018-05-13T01:25:15.467Z,97.10
2018-05-13T01:25:48.749Z,97.10
2018-05-13T01:26:21.735Z,97.10
2018-05-13T01:26:54.389Z,97.10
2018-05-13T01:27:27.001Z,97.10
2018-05-13T01:27:59.554Z,97.20
2018-05-13T01:28:32.102Z,97.20
2018-05-13T01:29:04.641Z,97.20
2018-05-13T01:29:37.919Z,97.20
2018-05-13T01:30:10.468Z,97.20
2018-05-13T01:30:42.992Z,97.20
2018-05-13T01:31:15.508Z,97.10
2018-05-13T01:31:48.888Z,97.10
2018-05-13T01:32:21.464Z,97.10
2018-05-13T01:32:54.772Z,97.20
2018-05-13T01:33:27.342Z,97.20
2018-05-13T01:33:59.904Z,97.10
2018-05-13T01:34:32.427Z,97.20
2018-05-13T01:35:04.960Z,97.20
2018-05-13T01:35:41.051Z,97.20
2018-05-13T01:36:13.564Z,97.20
2018-05-13T01:36:46.540Z,97.60
2018-05-13T01:37:19.105Z,97.30
2018-05-13T01:37:51.640Z,97.30
2018-05-13T01:38:24.210Z,97.40
2018-05-13T01:38:57.595Z,97.30
2018-05-13T01:39:30.158Z,97.30
2018-05-13T01:40:03.086Z,97.40
2018-05-13T01:40:36.378Z,97.50
2018-05-13T01:41:09.715Z,97.40
2018-05-13T01:41:42.256Z,97.40
2018-05-13T01:42:14.795Z,97.40
2018-05-13T01:42:47.346Z,97.50
2018-05-13T01:43:20.007Z,97.50
2018-05-13T01:43:52.545Z,97.50
2018-05-13T01:44:25.118Z,97.50
2018-05-13T01:44:57.631Z,97.50
2018-05-13T01:45:30.245Z,97.50
2018-05-13T01:46:02.987Z,97.50
2018-05-13T01:46:35.592Z,97.50
2018-05-13T01:47:08.170Z,97.50
2018-05-13T01:47:40.701Z,97.50
2018-05-13T01:48:13.221Z,97.50
2018-05-13T01:48:45.781Z,97.60
2018-05-13T01:49:18.308Z,97.70
2018-05-13T01:49:50.830Z,97.70
2018-05-13T01:50:23.388Z,97.60
2018-05-13T01:50:55.931Z,97.60
2018-05-13T01:51:28.464Z,97.70
2018-05-13T01:52:00.992Z,97.80
2018-05-13T01:52:33.505Z,97.80
2018-05-13T01:53:06.032Z,97.80
2018-05-13T01:53:38.547Z,97.80
2018-05-13T01:54:11.100Z,97.90
2018-05-13T01:54:43.701Z,97.90
2018-05-13T01:55:16.259Z,97.90
2018-05-13T01:55:48.796Z,97.90
2018-05-13T01:56:21.401Z,97.90
2018-05-13T01:56:54.008Z,97.90
2018-05-13T01:57:27.307Z,98.00
2018-05-13T01:57:59.825Z,98.00
2018-05-13T01:58:32.384Z,98.00
2018-05-13T01:59:04.892Z,98.00
2018-05-13T01:59:37.412Z,98.00
2018-05-13T02:00:09.912Z,98.10
2018-05-13T02:00:43.220Z,98.20
2018-05-13T02:01:15.728Z,98.10
2018-05-13T02:01:48.247Z,98.10
2018-05-13T02:02:20.816Z,98.20
2018-05-13T02:02:53.405Z,98.20
2018-05-13T02:03:25.928Z,98.10
2018-05-13T02:03:58.443Z,98.10
2018-05-13T02:04:30.979Z,98.10
2018-05-13T02:05:03.528Z,98.10
2018-05-13T02:05:36.077Z,98.00
2018-05-13T02:06:08.619Z,98.10
2018-05-13T02:06:41.160Z,98.00
2018-05-13T02:07:13.956Z,98.10
2018-05-13T02:07:46.501Z,98.10
2018-05-13T02:08:19.124Z,98.20
2018-05-13T02:08:51.649Z,98.10
2018-05-13T02:09:24.190Z,98.10
2018-05-13T02:09:56.708Z,98.10
2018-05-13T02:10:29.270Z,98.10
2018-05-13T02:11:01.790Z,98.10
2018-05-13T02:11:34.320Z,98.10
2018-05-13T02:12:07.681Z,98.10
2018-05-13T02:12:40.210Z,98.10
2018-05-13T02:13:12.735Z,98.10
2018-05-13T02:13:45.299Z,98.10
2018-05-13T02:14:17.822Z,98.10
2018-05-13T02:14:50.327Z,98.10
2018-05-13T02:15:22.872Z,97.90
2018-05-13T02:15:55.394Z,98.10
2018-05-13T02:16:28.004Z,98.10
2018-05-13T02:17:00.548Z,98.10
2018-05-13T02:17:33.088Z,98.20
2018-05-13T02:18:05.624Z,98.20
2018-05-13T02:18:38.143Z,98.20
2018-05-13T02:19:10.678Z,98.20
2018-05-13T02:19:43.982Z,98.10
2018-05-13T02:20:16.501Z,98.10
2018-05-13T02:20:49.035Z,97.70
2018-05-13T02:21:21.717Z,98.00
2018-05-13T02:21:54.231Z,98.00
2018-05-13T02:22:26.738Z,98.10
2018-05-13T02:22:59.254Z,98.10
2018-05-13T02:23:31.788Z,97.80
2018-05-13T02:24:04.347Z,98.10
2018-05-13T02:24:36.885Z,98.10
2018-05-13T02:25:09.396Z,98.10
2018-05-13T02:25:42.693Z,98.20
2018-05-13T02:26:15.255Z,98.10
2018-05-13T02:26:47.775Z,98.20
2018-05-13T02:27:20.293Z,98.20
2018-05-13T02:27:52.808Z,98.20
2018-05-13T02:28:25.327Z,98.20
2018-05-13T02:28:57.845Z,98.20
2018-05-13T02:29:30.420Z,98.20
2018-05-13T02:30:02.965Z,98.20
2018-05-13T02:30:35.488Z,98.10
2018-05-13T02:31:08.039Z,98.20
2018-05-13T02:31:40.560Z,98.20
2018-05-13T02:32:13.270Z,98.30
2018-05-13T02:32:45.779Z,98.40
2018-05-13T02:33:18.296Z,98.30
2018-05-13T02:33:50.819Z,98.40
2018-05-13T02:34:23.383Z,98.30
2018-05-13T02:34:55.925Z,98.40
2018-05-13T02:35:28.490Z,98.40
2018-05-13T02:36:01.214Z,98.40
2018-05-13T02:36:33.719Z,98.40
2018-05-13T02:37:06.239Z,98.50
2018-05-13T02:37:38.782Z,98.50
2018-05-13T02:38:12.081Z,98.50
2018-05-13T02:38:44.599Z,98.50
2018-05-13T02:39:18.007Z,98.50
2018-05-13T02:39:50.793Z,98.50
2018-05-13T02:40:23.314Z,98.60
2018-05-13T02:40:55.852Z,98.50
2018-05-13T02:41:28.375Z,98.50
2018-05-13T02:42:00.922Z,98.50
2018-05-13T02:42:33.446Z,98.60
2018-05-13T02:43:05.964Z,98.70
2018-05-13T02:43:38.476Z,98.60
2018-05-13T02:44:11.073Z,98.40
2018-05-13T02:44:44.354Z,98.60
2018-05-13T02:45:16.869Z,98.60
2018-05-13T02:45:49.381Z,98.60
2018-05-13T02:46:21.909Z,98.70
2018-05-13T02:46:54.460Z,98.70
2018-05-13T02:47:27.007Z,98.70
2018-05-13T02:47:59.676Z,98.70
2018-05-13T02:48:32.200Z,98.70
2018-05-13T02:49:04.727Z,98.70
2018-05-13T02:49:37.243Z,98.80
2018-05-13T02:50:09.774Z,98.90
2018-05-13T02:50:42.285Z,98.90
2018-05-13T02:51:14.816Z,98.90
2018-05-13T02:51:47.394Z,98.80
2018-05-13T02:52:19.950Z,98.90
2018-05-13T02:52:52.522Z,98.80
2018-05-13T02:53:25.025Z,98.90
2018-05-13T02:53:57.591Z,98.90
2018-05-13T02:54:30.105Z,98.90
2018-05-13T02:55:02.641Z,98.80
2018-05-13T02:55:35.156Z,98.90
2018-05-13T02:56:07.700Z,98.90
2018-05-13T02:56:41.001Z,98.90
2018-05-13T02:57:13.571Z,98.80
2018-05-13T02:57:46.084Z,98.80
2018-05-13T02:58:18.640Z,98.90
2018-05-13T02:58:51.366Z,98.90
2018-05-13T02:59:23.928Z,99.20
2018-05-13T02:59:56.445Z,99.00
2018-05-13T03:00:28.990Z,99.00
2018-05-13T03:01:01.534Z,99.10
2018-05-13T03:01:34.048Z,99.10
2018-05-13T03:02:06.567Z,99.10
2018-05-13T03:02:39.121Z,99.00
2018-05-13T03:03:11.649Z,99.20
2018-05-13T03:03:44.212Z,99.20
2018-05-13T03:04:17.491Z,99.20
2018-05-13T03:04:50.038Z,99.20
2018-05-13T03:05:22.571Z,99.20
2018-05-13T03:05:55.117Z,99.20
2018-05-13T03:06:27.672Z,99.20
2018-05-13T03:07:00.196Z,99.20
2018-05-13T03:07:33.489Z,99.20
2018-05-13T03:08:06.056Z,99.20
2018-05-13T03:08:38.582Z,99.20
2018-05-13T03:09:11.108Z,99.20
2018-05-13T03:09:43.660Z,99.30
2018-05-13T03:10:16.194Z,99.20
2018-05-13T03:10:49.504Z,99.40
2018-05-13T03:11:22.066Z,99.30
2018-05-13T03:11:54.612Z,99.30
2018-05-13T03:12:27.157Z,99.30
2018-05-13T03:12:59.693Z,99.30
2018-05-13T03:13:32.216Z,99.30
2018-05-13T03:14:04.725Z,99.30
2018-05-13T03:14:37.251Z,99.10
2018-05-13T03:15:09.774Z,99.30
2018-05-13T03:15:42.300Z,99.40
2018-05-13T03:16:14.844Z,99.40
2018-05-13T03:16:47.380Z,99.40
2018-05-13T03:17:19.944Z,99.30
2018-05-13T03:17:52.476Z,99.30
2018-05-13T03:18:25.011Z,99.30
2018-05-13T03:18:57.604Z,99.30
2018-05-13T03:19:30.128Z,99.40
2018-05-13T03:20:02.652Z,99.40
2018-05-13T03:20:35.972Z,99.90
2018-05-13T03:21:08.484Z,99.50
2018-05-13T03:21:41.022Z,99.50
2018-05-13T03:22:13.563Z,99.50
2018-05-13T03:22:46.092Z,99.60
2018-05-13T03:23:19.394Z,99.60
2018-05-13T03:23:51.931Z,99.60
2018-05-13T03:24:24.495Z,99.50
2018-05-13T03:24:57.025Z,99.50
2018-05-13T03:25:29.537Z,99.50
2018-05-13T03:26:02.079Z,99.50
2018-05-13T03:26:34.600Z,99.50
2018-05-13T03:27:07.107Z,99.90
2018-05-13T03:27:39.640Z,99.60
2018-05-13T03:28:12.165Z,99.70
2018-05-13T03:28:44.693Z,99.70
2018-05-13T03:29:17.240Z,99.70
2018-05-13T03:29:49.801Z,99.70
2018-05-13T03:30:22.330Z,99.80
2018-05-13T03:30:54.869Z,99.80
2018-05-13T03:31:28.161Z,99.80
2018-05-13T03:32:00.696Z,99.80
2018-05-13T03:32:33.245Z,99.70
2018-05-13T03:33:05.784Z,99.80
2018-05-13T03:33:38.317Z,99.80
2018-05-13T03:34:10.843Z,99.70
2018-05-13T03:34:43.390Z,99.70
2018-05-13T03:35:15.992Z,99.70
2018-05-13T03:35:49.302Z,99.80
2018-05-13T03:36:21.915Z,99.80
2018-05-13T03:36:54.469Z,99.80
2018-05-13T03:37:27.001Z,99.70
2018-05-13T03:37:59.552Z,99.80
2018-05-13T03:38:32.179Z,99.80
2018-05-13T03:39:04.732Z,99.80
2018-05-13T03:39:37.249Z,99.90
2018-05-13T03:40:09.799Z,99.90
2018-05-13T03:40:42.362Z,99.90
2018-05-13T03:41:14.891Z,99.90
2018-05-13T03:41:47.453Z,99.90
2018-05-13T03:42:20.010Z,99.90
2018-05-13T03:42:52.564Z,99.90
2018-05-13T03:43:25.386Z,99.90
2018-05-13T03:43:57.917Z,99.90
2018-05-13T03:44:30.475Z,99.90
2018-05-13T03:45:03.094Z,99.90
2018-05-13T03:45:35.632Z,99.90
2018-05-13T03:46:08.943Z,99.90
2018-05-13T03:46:41.476Z,99.90
2018-05-13T03:47:14.014Z,99.90
2018-05-13T03:47:46.572Z,99.90
2018-05-13T03:48:19.127Z,99.90
2018-05-13T03:48:51.662Z,99.90
2018-05-13T03:49:24.203Z,99.90
2018-05-13T03:49:56.754Z,99.90
2018-05-13T03:50:30.093Z,99.90
2018-05-13T03:51:02.631Z,99.90
2018-05-13T03:51:35.210Z,99.90
2018-05-13T03:52:07.759Z,99.90
2018-05-13T03:52:40.282Z,99.90
2018-05-13T03:53:12.802Z,99.90
2018-05-13T03:53:45.321Z,99.90
2018-05-13T03:54:18.630Z,99.90
2018-05-13T03:54:51.144Z,99.90
2018-05-13T03:55:23.711Z,99.90
2018-05-13T03:55:56.240Z,99.90
2018-05-13T03:56:28.767Z,99.90
2018-05-13T03:57:01.317Z,99.90
2018-05-13T03:57:34.606Z,99.90
2018-05-13T03:58:07.144Z,99.90
2018-05-13T03:58:39.663Z,99.90
2018-05-13T03:59:12.193Z,99.90
2018-05-13T03:59:45.492Z,99.90
2018-05-13T04:00:18.013Z,99.90
2018-05-13T04:00:50.583Z,99.90
2018-05-13T04:01:23.194Z,99.90
2018-05-13T04:01:55.730Z,99.90
2018-05-13T04:02:28.270Z,99.90
2018-05-13T04:03:00.808Z,99.90
2018-05-13T04:03:33.351Z,99.90
2018-05-13T04:04:05.872Z,99.90
2018-05-13T04:04:39.195Z,99.90
2018-05-13T04:05:11.732Z,99.90
2018-05-13T04:05:45.065Z,99.90
2018-05-13T04:06:17.614Z,99.90
2018-05-13T04:06:50.128Z,99.90
2018-05-13T04:07:22.708Z,99.90
2018-05-13T04:09:20.926Z,99.90
2018-05-13T04:10:16.919Z,99.90
2018-05-13T04:11:01.029Z,99.90
2018-05-13T04:11:45.365Z,99.90
2018-05-13T04:12:29.605Z,99.90
2018-05-13T04:13:13.774Z,99.90
2018-05-13T04:13:58.109Z,99.90
2018-05-13T04:14:42.319Z,99.90
2018-05-13T04:15:17.750Z,99.90
2018-05-13T04:15:51.045Z,99.90
2018-05-13T04:16:23.574Z,99.90
2018-05-13T04:16:56.089Z,99.90
2018-05-13T04:17:28.654Z,99.90
2018-05-13T04:18:01.180Z,99.90
2018-05-13T04:18:33.741Z,99.90
2018-05-13T04:19:07.044Z,99.90
2018-05-13T04:19:39.592Z,99.90
2018-05-13T04:20:12.117Z,99.90
2018-05-13T04:20:44.664Z,99.90
2018-05-13T04:21:17.201Z,99.90
2018-05-13T04:21:49.754Z,99.90
2018-05-13T04:22:22.297Z,99.90
2018-05-13T04:22:55.613Z,99.90
2018-05-13T04:23:28.166Z,99.90
2018-05-13T04:24:00.693Z,99.90
2018-05-13T04:24:33.264Z,99.90
2018-05-13T04:25:05.798Z,99.90
2018-05-13T04:25:38.337Z,99.90
2018-05-13T04:26:10.866Z,99.90
2018-05-13T04:26:44.176Z,99.90
2018-05-13T04:27:16.717Z,99.90
2018-05-13T04:27:49.264Z,99.90
2018-05-13T04:28:21.965Z,99.60
2018-05-13T04:28:54.515Z,99.80
2018-05-13T04:29:27.051Z,99.80
2018-05-13T04:29:59.603Z,99.80
2018-05-13T04:30:32.184Z,99.50
2018-05-13T04:31:04.716Z,99.80
2018-05-13T04:31:37.251Z,99.90
2018-05-13T04:32:09.768Z,99.90
2018-05-13T04:32:42.303Z,99.90
2018-05-13T04:33:14.820Z,99.60
2018-05-13T04:33:48.109Z,99.90
2018-05-13T04:34:21.412Z,99.90
2018-05-13T04:34:53.940Z,99.90
2018-05-13T04:35:26.478Z,99.80
2018-05-13T04:35:58.996Z,99.80
2018-05-13T04:36:31.541Z,99.80
2018-05-13T04:37:04.176Z,99.70
2018-05-13T04:37:36.716Z,99.70
2018-05-13T04:38:09.271Z,99.70
2018-05-13T04:38:41.826Z,99.70
2018-05-13T04:39:14.374Z,99.70
2018-05-13T04:39:46.945Z,99.70
2018-05-13T04:40:19.489Z,99.70
2018-05-13T04:40:52.026Z,99.60
2018-05-13T04:41:24.596Z,99.60
2018-05-13T04:41:57.137Z,99.30
2018-05-13T04:42:29.761Z,99.50
2018-05-13T04:43:02.304Z,99.50
2018-05-13T04:43:34.830Z,99.50
2018-05-13T04:44:07.356Z,99.50
2018-05-13T04:44:39.898Z,99.50
2018-05-13T04:45:13.205Z,99.50
2018-05-13T04:45:45.732Z,99.50
2018-05-13T04:46:18.255Z,99.50
2018-05-13T04:46:50.776Z,99.40
2018-05-13T04:47:23.320Z,99.40
2018-05-13T04:47:56.605Z,99.40
2018-05-13T04:48:29.155Z,99.30
2018-05-13T04:49:01.680Z,99.40
2018-05-13T04:49:34.215Z,99.40
2018-05-13T04:50:06.756Z,99.40
2018-05-13T04:50:40.037Z,99.40
2018-05-13T04:51:12.557Z,99.40
2018-05-13T04:51:45.097Z,99.40
2018-05-13T04:52:17.670Z,99.30
2018-05-13T04:52:50.188Z,99.40
2018-05-13T04:53:23.583Z,99.50
2018-05-13T04:53:56.121Z,99.50
2018-05-13T04:54:28.632Z,99.50
2018-05-13T04:55:01.185Z,99.50
2018-05-13T04:55:33.720Z,99.50
2018-05-13T04:56:06.243Z,99.50
2018-05-13T04:56:38.773Z,99.50
2018-05-13T04:57:11.309Z,99.50
2018-05-13T04:57:43.829Z,99.10
2018-05-13T04:58:16.373Z,99.40
2018-05-13T04:58:48.896Z,99.70
2018-05-13T04:59:22.080Z,99.40
2018-05-13T04:59:54.601Z,99.30
2018-05-13T05:00:27.125Z,99.20
2018-05-13T05:01:00.431Z,99.20
2018-05-13T05:01:32.988Z,99.20
2018-05-13T05:02:05.516Z,99.20
2018-05-13T05:02:38.059Z,99.20
2018-05-13T05:03:10.577Z,99.20
2018-05-13T05:03:43.103Z,99.20
2018-05-13T05:04:15.617Z,99.10
2018-05-13T05:04:48.133Z,99.00
2018-05-13T05:05:21.586Z,99.00
2018-05-13T05:05:54.133Z,98.90
2018-05-13T05:06:26.670Z,98.90
2018-05-13T05:06:59.216Z,98.80
2018-05-13T05:07:31.744Z,98.90
2018-05-13T05:08:04.291Z,98.80
2018-05-13T05:08:36.904Z,98.70
2018-05-13T05:09:09.445Z,98.70
2018-05-13T05:09:41.998Z,98.70
2018-05-13T05:10:14.534Z,98.70
2018-05-13T05:10:47.060Z,98.50
2018-05-13T05:11:19.597Z,98.50
2018-05-13T05:11:52.150Z,98.50
2018-05-13T05:12:24.744Z,98.50
2018-05-13T05:12:58.037Z,98.40
2018-05-13T05:13:30.588Z,98.40
2018-05-13T05:14:03.128Z,98.30
2018-05-13T05:14:35.677Z,98.30
2018-05-13T05:15:08.207Z,98.20
2018-05-13T05:15:40.768Z,98.00
2018-05-13T05:16:13.299Z,97.90
2018-05-13T05:16:45.856Z,97.90
2018-05-13T05:17:18.423Z,97.90
2018-05-13T05:17:50.984Z,97.90
2018-05-13T05:18:23.547Z,97.80
2018-05-13T05:18:56.115Z,97.70
2018-05-13T05:19:28.696Z,97.70
2018-05-13T05:20:01.267Z,97.80
2018-05-13T05:20:33.815Z,97.80
2018-05-13T05:21:06.340Z,97.90
2018-05-13T05:21:38.851Z,97.70
2018-05-13T05:22:12.146Z,98.00
2018-05-13T05:22:44.733Z,97.40
2018-05-13T05:23:17.315Z,97.70
2018-05-13T05:23:49.870Z,97.40
2018-05-13T05:24:22.405Z,97.60
2018-05-13T05:24:54.941Z,97.60
2018-05-13T05:25:27.463Z,97.50
2018-05-13T05:26:00.011Z,97.30
2018-05-13T05:26:32.524Z,97.30
2018-05-13T05:27:05.045Z,97.30
2018-05-13T05:27:38.366Z,97.00
2018-05-13T05:28:10.913Z,96.90
2018-05-13T05:28:43.501Z,96.90
2018-05-13T05:29:16.044Z,96.90
2018-05-13T05:29:48.606Z,96.90
2018-05-13T05:30:21.158Z,96.90
2018-05-13T05:30:53.698Z,96.80
2018-05-13T05:31:26.221Z,96.60
2018-05-13T05:31:58.751Z,96.60
2018-05-13T05:32:31.287Z,96.60
2018-05-13T05:33:03.863Z,96.50
2018-05-13T05:33:36.427Z,96.10
2018-05-13T05:34:08.956Z,96.40
2018-05-13T05:34:41.480Z,96.40
2018-05-13T05:35:14.032Z,96.40
2018-05-13T05:35:46.637Z,96.40
2018-05-13T05:36:19.140Z,96.50
2018-05-13T05:36:51.665Z,96.20
2018-05-13T05:37:24.253Z,96.50
2018-05-13T05:37:56.744Z,96.30
2018-05-13T05:38:29.295Z,96.10
2018-05-13T05:39:01.841Z,96.30
2018-05-13T05:39:35.150Z,96.40
2018-05-13T05:40:07.675Z,96.30
2018-05-13T05:40:41.000Z,96.20
2018-05-13T05:41:13.543Z,96.20
2018-05-13T05:41:46.092Z,96.20
2018-05-13T05:42:18.674Z,96.00
2018-05-13T05:42:51.197Z,96.00
2018-05-13T05:43:23.744Z,95.90
2018-05-13T05:43:56.281Z,95.80
2018-05-13T05:44:28.804Z,95.80
2018-05-13T05:45:02.072Z,95.90
2018-05-13T05:45:34.601Z,95.90
2018-05-13T05:46:07.144Z,95.40
2018-05-13T05:46:39.663Z,95.60
2018-05-13T05:47:13.330Z,95.40
2018-05-13T05:47:45.861Z,95.60
2018-05-13T05:48:18.477Z,95.70
2018-05-13T05:48:50.926Z,95.60
2018-05-13T05:49:23.547Z,95.50
2018-05-13T05:49:56.075Z,95.50
2018-05-13T05:50:28.660Z,95.50
2018-05-13T05:51:01.175Z,95.50
2018-05-13T05:51:33.738Z,95.40
2018-05-13T05:52:06.282Z,95.30
2018-05-13T05:52:38.795Z,95.10
2018-05-13T05:53:12.092Z,95.00
2018-05-13T05:53:44.625Z,95.00
2018-05-13T05:54:17.133Z,94.80
2018-05-13T05:54:49.670Z,94.70
2018-05-13T05:55:22.209Z,94.60
2018-05-13T05:55:54.716Z,94.40
2018-05-13T05:56:28.375Z,94.20
2018-05-13T05:57:00.983Z,94.20
2018-05-13T05:57:33.526Z,94.60
2018-05-13T05:58:06.061Z,94.60
2018-05-13T05:58:38.592Z,94.50
2018-05-13T05:59:11.102Z,94.50
2018-05-13T05:59:43.620Z,94.50
2018-05-13T06:00:16.132Z,94.40
2018-05-13T06:00:49.449Z,94.20
2018-05-13T06:01:22.020Z,94.20
2018-05-13T06:01:54.556Z,94.20
2018-05-13T06:02:27.121Z,94.00
2018-05-13T06:02:59.683Z,94.00
2018-05-13T06:03:32.248Z,94.00
2018-05-13T06:04:04.771Z,93.90
2018-05-13T06:04:37.312Z,93.80
2018-05-13T06:05:09.838Z,93.90
2018-05-13T06:05:42.357Z,93.60
2018-05-13T06:06:14.867Z,93.70
2018-05-13T06:06:47.383Z,93.70
2018-05-13T06:07:19.905Z,93.80
2018-05-13T06:07:52.432Z,93.80
2018-05-13T06:08:24.963Z,93.80
2018-05-13T06:08:57.505Z,93.80
2018-05-13T06:09:30.035Z,93.80
2018-05-13T06:10:02.564Z,93.70
2018-05-13T06:10:35.087Z,93.50
2018-05-13T06:11:07.632Z,93.50
2018-05-13T06:11:40.170Z,93.50
2018-05-13T06:12:12.729Z,93.60
2018-05-13T06:12:45.262Z,93.50
2018-05-13T06:13:17.776Z,93.40
2018-05-13T06:13:50.307Z,93.30
2018-05-13T06:14:22.832Z,93.20
2018-05-13T06:14:55.355Z,93.20
2018-05-13T06:15:28.686Z,93.30
2018-05-13T06:16:01.237Z,93.30
2018-05-13T06:16:33.784Z,93.30
2018-05-13T06:17:06.313Z,93.40
2018-05-13T06:17:38.841Z,93.20
2018-05-13T06:18:11.388Z,93.00
2018-05-13T06:18:43.955Z,93.00
2018-05-13T06:19:16.470Z,92.80
2018-05-13T06:19:49.768Z,93.00
2018-05-13T06:20:22.364Z,93.00
2018-05-13T06:20:54.886Z,93.00
2018-05-13T06:21:27.434Z,92.70
2018-05-13T06:21:59.988Z,92.60
2018-05-13T06:22:32.529Z,92.70
2018-05-13T06:23:05.041Z,92.50
2018-05-13T06:23:38.356Z,92.40
2018-05-13T06:24:10.884Z,92.40
2018-05-13T06:24:43.413Z,92.30
2018-05-13T06:25:15.956Z,92.10
2018-05-13T06:25:48.495Z,91.90
2018-05-13T06:26:21.033Z,91.80
2018-05-13T06:26:53.665Z,91.90
2018-05-13T06:27:26.208Z,91.30
2018-05-13T06:27:58.740Z,91.50
2018-05-13T06:28:32.149Z,91.30
2018-05-13T06:29:04.672Z,91.20
2018-05-13T06:29:37.385Z,91.30
2018-05-13T06:30:48.783Z,91.30
2018-05-13T06:31:21.331Z,91.50
2018-05-13T06:31:53.931Z,91.20
2018-05-13T06:32:26.394Z,91.50
2018-05-13T06:32:58.954Z,91.30
2018-05-13T06:33:31.473Z,91.30
2018-05-13T06:34:04.036Z,91.40
2018-05-13T06:34:36.597Z,90.70
2018-05-13T06:35:09.161Z,90.80
2018-05-13T06:35:41.710Z,90.90
2018-05-13T06:36:15.009Z,90.80
2018-05-13T06:36:47.550Z,90.80
2018-05-13T06:37:20.087Z,90.80
2018-05-13T06:37:52.615Z,90.90
2018-05-13T06:38:25.152Z,91.00
2018-05-13T06:38:57.686Z,91.10
2018-05-13T06:39:30.288Z,90.80
2018-05-13T06:40:03.556Z,90.80
2018-05-13T06:40:36.107Z,90.80
2018-05-13T06:41:08.636Z,90.60
2018-05-13T06:41:41.145Z,90.60
2018-05-13T06:42:13.678Z,90.70
2018-05-13T06:42:46.200Z,90.30
2018-05-13T06:43:18.745Z,90.10
2018-05-13T06:43:51.320Z,90.00
2018-05-13T06:44:23.882Z,89.60
2018-05-13T06:44:56.447Z,89.80
2018-05-13T06:45:28.993Z,89.90
2018-05-13T06:46:01.551Z,89.90
2018-05-13T06:46:34.083Z,90.10
2018-05-13T06:47:06.610Z,90.20
2018-05-13T06:47:39.150Z,90.10
2018-05-13T06:48:11.667Z,90.00
2018-05-13T06:48:44.188Z,90.00
2018-05-13T06:49:16.715Z,90.00
2018-05-13T06:49:49.262Z,89.70
2018-05-13T06:50:21.828Z,89.90
2018-05-13T06:50:54.388Z,89.90
2018-05-13T06:51:27.001Z,89.60
2018-05-13T06:51:59.481Z,89.00
2018-05-13T06:52:32.018Z,89.20
2018-05-13T06:53:04.582Z,88.60
2018-05-13T06:53:37.105Z,88.50
2018-05-13T06:54:09.624Z,88.60
2018-05-13T06:54:42.158Z,88.50
2018-05-13T06:55:14.718Z,88.60
2018-05-13T06:55:48.000Z,88.60
2018-05-13T06:56:20.542Z,88.60
2018-05-13T06:56:53.183Z,88.60
2018-05-13T06:57:25.800Z,87.80
2018-05-13T06:57:58.275Z,87.60
2018-05-13T06:58:30.800Z,88.00
2018-05-13T06:59:03.343Z,88.00
2018-05-13T06:59:35.880Z,86.70
2018-05-13T07:00:08.401Z,86.60
2018-05-13T07:00:40.931Z,86.20
2018-05-13T07:01:14.584Z,85.40
2018-05-13T07:01:47.103Z,85.20
2018-05-13T07:02:19.634Z,85.80
2018-05-13T07:02:52.186Z,86.60
2018-05-13T07:03:24.724Z,86.80
2018-05-13T07:03:57.244Z,86.70
2018-05-13T07:04:29.780Z,86.10